createdAt,value
2019-05-13T00:00:03.703Z,89.18
2019-05-13T00:01:06.710Z,88.7
2019-05-13T00:02:04.527Z,88.79
2019-05-13T00:03:03.558Z,88.51
2019-05-13T00:04:03.550Z,89.08
2019-05-13T00:05:03.851Z,88.6
2019-05-13T00:06:04.106Z,89.08
2019-05-13T00:07:04.609Z,88.99
2019-05-13T00:08:03.423Z,89.08
2019-05-13T00:09:03.500Z,89.08
2019-05-13T00:10:03.972Z,89.18
2019-05-13T00:11:04.355Z,89.18
2019-05-13T00:12:04.582Z,88.99
2019-05-13T00:13:04.309Z,89.18
2019-05-13T00:14:04.362Z,88.99
2019-05-13T00:15:03.688Z,89.47
2019-05-13T00:16:03.668Z,89.47
2019-05-13T00:17:04.180Z,89.75
2019-05-13T00:18:03.817Z,89.84
2019-05-13T00:19:04.099Z,90.03
2019-05-13T00:20:04.053Z,90.03
2019-05-13T00:21:03.600Z,90.03
2019-05-13T00:22:03.719Z,89.94
2019-05-13T00:23:03.826Z,90.13
2019-05-13T00:24:04.073Z,90.03
2019-05-13T00:25:03.948Z,89.75
2019-05-13T00:29:34.023Z,90.7
2019-05-13T00:30:34.065Z,90.56
2019-05-13T00:31:33.533Z,90.94
2019-05-13T00:32:33.674Z,91.03
2019-05-13T00:33:33.804Z,91.13
2019-05-13T00:34:33.788Z,91.22
2019-05-13T00:35:33.773Z,91.61
2019-05-13T00:36:33.679Z,90.56
2019-05-13T00:37:33.356Z,91.03
2019-05-13T00:38:33.505Z,91.03
2019-05-13T00:39:33.584Z,90.75
2019-05-13T00:40:33.671Z,91.03
2019-05-13T00:41:33.647Z,91.03
2019-05-13T00:44:39.567Z,90.94
2019-05-13T00:44:53.193Z,91.13
2019-05-13T00:45:53.239Z,91.32
2019-05-13T00:46:53.690Z,91.42
2019-05-13T00:47:53.623Z,91.51
2019-05-13T00:48:54.041Z,91.7
2019-05-13T00:49:54.054Z,91.8
2019-05-13T00:50:54.399Z,91.89
2019-05-13T00:51:53.360Z,92.08
2019-05-13T00:52:53.573Z,92.08
2019-05-13T00:54:06.924Z,92.65
2019-05-13T00:54:53.455Z,92.08
2019-05-13T00:55:53.543Z,91.8
2019-05-13T00:56:54.718Z,92.18
2019-05-13T00:57:54.068Z,91.99
2019-05-13T00:58:54.074Z,92.18
2019-05-13T00:59:54.041Z,92.36
2019-05-13T01:00:54.570Z,92.18
2019-05-13T01:01:53.266Z,92.03
2019-05-13T01:02:53.333Z,92.36
2019-05-13T01:03:53.267Z,92.65
2019-05-13T01:04:53.523Z,92.65
2019-05-13T01:05:53.508Z,92.46
2019-05-13T01:06:53.731Z,92.13
2019-05-13T01:07:53.655Z,92.27
2019-05-13T01:08:53.536Z,91.99
2019-05-13T01:09:53.468Z,92.46
2019-05-13T01:10:53.620Z,92.56
2019-05-13T01:11:53.667Z,92.18
2019-05-13T01:12:53.912Z,92.46
2019-05-13T01:13:53.545Z,92.51
2019-05-13T01:14:53.403Z,92.89
2019-05-13T01:15:54.328Z,92.51
2019-05-13T01:16:54.344Z,93.08
2019-05-13T01:17:53.465Z,92.99
2019-05-13T01:18:53.757Z,92.99
2019-05-13T01:19:53.747Z,92.51
2019-05-13T01:20:53.792Z,92.61
2019-05-13T01:21:53.990Z,92.51
2019-05-13T01:22:54.075Z,92.51
2019-05-13T01:23:54.307Z,92.8
2019-05-13T01:29:09.754Z,93.18
2019-05-13T01:29:23.767Z,93.37
2019-05-13T01:30:23.759Z,92.89
2019-05-13T01:31:23.792Z,92.89
2019-05-13T01:32:23.810Z,93.46
2019-05-13T01:33:23.502Z,93.46
2019-05-13T01:34:23.517Z,93.55
2019-05-13T01:35:23.561Z,93.46
2019-05-13T01:36:23.442Z,93.55
2019-05-13T01:37:23.497Z,93.94
2019-05-13T01:38:24.027Z,93.94
2019-05-13T01:39:24.189Z,94.13
2019-05-13T01:40:23.901Z,94.03
2019-05-13T01:41:23.971Z,93.75
2019-05-13T01:42:24.035Z,94.56
2019-05-13T01:43:24.201Z,94.51
2019-05-13T01:44:24.196Z,94.22
2019-05-13T01:45:24.012Z,94.32
2019-05-13T01:46:24.074Z,94.22
2019-05-13T01:47:24.036Z,95.17
2019-05-13T01:48:24.013Z,94.56
2019-05-13T01:49:24.068Z,94.51
2019-05-13T01:50:24.004Z,94.6
2019-05-13T01:51:23.907Z,94.42
2019-05-13T01:52:23.739Z,94.6
2019-05-13T01:53:24.173Z,95.12
2019-05-13T01:54:22.006Z,94.84
2019-05-13T01:55:24.296Z,95.41
2019-05-13T01:56:23.515Z,95.32
2019-05-13T01:57:23.760Z,95.22
2019-05-13T01:58:23.525Z,94.65
2019-05-13T01:59:23.897Z,95.51
2019-05-13T02:00:24.120Z,95.32
2019-05-13T02:01:24.015Z,95.22
2019-05-13T02:02:24.086Z,95.32
2019-05-13T02:03:24.309Z,95.51
2019-05-13T02:04:24.182Z,94.93
2019-05-13T02:05:24.090Z,94.93
2019-05-13T02:06:24.038Z,95.22
2019-05-13T02:07:24.280Z,94.65
2019-05-13T02:08:24.327Z,94.93
2019-05-13T02:09:24.301Z,94.93
2019-05-13T02:10:22.053Z,94.93
2019-05-13T02:11:23.871Z,94.93
2019-05-13T02:12:24.006Z,95.12
2019-05-13T02:13:24.333Z,95.03
2019-05-13T02:14:23.625Z,94.74
2019-05-13T02:15:23.242Z,95.03
2019-05-13T02:16:24.236Z,94.93
2019-05-13T02:17:26.173Z,95.03
2019-05-13T02:18:24.262Z,95.22
2019-05-13T02:19:24.287Z,95.22
2019-05-13T02:20:24.579Z,95.12
2019-05-13T02:21:24.094Z,95.51
2019-05-13T02:22:24.529Z,95.51
2019-05-13T02:23:23.772Z,95.51
2019-05-13T02:24:23.636Z,95.51
2019-05-13T02:25:23.711Z,94.93
2019-05-13T02:26:23.987Z,94.74
2019-05-13T02:27:22.272Z,94.56
2019-05-13T02:28:24.302Z,94.65
2019-05-13T02:29:24.277Z,95.03
2019-05-13T02:30:22.053Z,95.41
2019-05-13T02:31:50.805Z,95.7
2019-05-13T02:32:23.430Z,95.6
2019-05-13T02:33:25.645Z,95.79
2019-05-13T02:34:25.689Z,95.79
2019-05-13T02:35:25.654Z,95.79
2019-05-13T02:36:25.349Z,95.6
2019-05-13T02:37:29.393Z,95.98
2019-05-13T02:38:35.118Z,96.36
2019-05-13T02:39:25.039Z,96.55
2019-05-13T02:40:25.338Z,96.55
2019-05-13T02:41:25.461Z,96.17
2019-05-13T02:42:25.404Z,96.36
2019-05-13T02:43:25.653Z,96.55
2019-05-13T02:44:25.113Z,96.26
2019-05-13T02:45:25.324Z,96.36
2019-05-13T02:46:25.142Z,96.65
2019-05-13T02:47:25.099Z,96.45
2019-05-13T02:48:25.857Z,96.69
2019-05-13T02:49:25.634Z,96.79
2019-05-13T02:50:25.068Z,96.22
2019-05-13T02:51:25.736Z,96.12
2019-05-13T02:52:25.040Z,96.69
2019-05-13T02:53:23.574Z,96.93
2019-05-13T02:54:25.461Z,96.5
2019-05-13T02:55:24.937Z,96.79
2019-05-13T02:56:25.206Z,96.6
2019-05-13T02:57:25.867Z,96.79
2019-05-13T02:58:26.573Z,96.6
2019-05-13T02:59:25.188Z,96.69
2019-05-13T03:00:23.543Z,96.31
2019-05-13T03:01:24.901Z,96.79
2019-05-13T03:02:25.044Z,97.36
2019-05-13T03:03:25.663Z,96.98
2019-05-13T03:04:23.280Z,97.07
2019-05-13T03:05:24.632Z,97.17
2019-05-13T03:06:25.019Z,97.07
2019-05-13T03:07:25.753Z,97.17
2019-05-13T03:08:49.313Z,96.88
2019-05-13T03:09:25.544Z,96.98
2019-05-13T03:10:25.055Z,97.07
2019-05-13T03:11:25.285Z,98.02
2019-05-13T03:12:25.593Z,97.64
2019-05-13T03:13:25.935Z,97.83
2019-05-13T03:14:26.496Z,97.55
2019-05-13T03:15:25.680Z,97.55
2019-05-13T03:16:23.039Z,97.64
2019-05-13T03:17:25.105Z,97.83
2019-05-13T03:18:25.277Z,97.92
2019-05-13T03:19:25.178Z,98.31
2019-05-13T03:20:25.458Z,98.59
2019-05-13T03:21:25.728Z,98.31
2019-05-13T03:22:25.209Z,98.31
2019-05-13T03:23:25.309Z,98.69
2019-05-13T03:24:25.736Z,98.64
2019-05-13T03:25:25.478Z,99.3
2019-05-13T03:26:23.385Z,99.49
2019-05-13T03:27:26.762Z,99.26
2019-05-13T03:28:25.092Z,99.35
2019-05-13T03:29:24.980Z,99.4
2019-05-13T03:30:27.681Z,99.3
2019-05-13T03:31:26.082Z,99.3
2019-05-13T03:32:37.476Z,99.3
2019-05-13T03:33:29.318Z,99.49
2019-05-13T03:34:29.623Z,99.21
2019-05-13T03:35:35.584Z,99.21
2019-05-13T03:36:28.139Z,99.11
2019-05-13T03:37:28.697Z,99.4
2019-05-13T03:38:25.154Z,99.3
2019-05-13T03:39:24.976Z,99.02
2019-05-13T03:40:25.624Z,99.58
2019-05-13T03:41:25.345Z,99.58
2019-05-13T03:42:25.065Z,99.02
2019-05-13T03:43:25.500Z,99.3
2019-05-13T03:44:26.040Z,99.77
2019-05-13T03:45:24.648Z,99.4
2019-05-13T03:46:25.275Z,99.35
2019-05-13T03:47:25.589Z,99.49
2019-05-13T03:48:26.170Z,99.58
2019-05-13T03:49:23.224Z,99.99
2019-05-13T03:50:25.151Z,99.99
2019-05-13T03:51:24.898Z,99.99
2019-05-13T03:52:25.296Z,99.99
2019-05-13T03:53:23.363Z,99.99
2019-05-13T03:54:25.433Z,99.99
2019-05-13T03:55:26.061Z,99.99
2019-05-13T03:56:26.067Z,99.99
2019-05-13T03:57:25.793Z,99.99
2019-05-13T03:58:23.820Z,99.99
2019-05-13T03:59:25.245Z,99.99
2019-05-13T04:00:23.468Z,99.99
2019-05-13T04:01:24.888Z,99.99
2019-05-13T04:02:25.326Z,99.99
2019-05-13T04:03:25.311Z,99.99
2019-05-13T04:04:25.897Z,99.99
2019-05-13T04:05:25.860Z,99.99
2019-05-13T04:06:25.628Z,99.99
2019-05-13T04:07:23.710Z,99.99
2019-05-13T04:08:25.599Z,99.99
2019-05-13T04:09:32.285Z,99.99
2019-05-13T04:10:25.480Z,99.99
2019-05-13T04:11:25.104Z,99.99
2019-05-13T04:12:28.264Z,99.99
2019-05-13T04:13:26.891Z,99.99
2019-05-13T04:14:25.920Z,99.99
2019-05-13T04:15:25.983Z,99.99
2019-05-13T04:16:26.198Z,99.99
2019-05-13T04:17:24.488Z,99.99
2019-05-13T04:18:26.173Z,99.99
2019-05-13T04:19:25.770Z,99.99
2019-05-13T04:20:25.607Z,99.99
2019-05-13T04:21:25.511Z,99.99
2019-05-13T04:22:25.576Z,99.99
2019-05-13T04:23:25.830Z,99.99
2019-05-13T04:24:32.847Z,99.99
2019-05-13T04:25:25.709Z,99.99
2019-05-13T04:26:26.160Z,99.99
2019-05-13T04:27:25.882Z,99.99
2019-05-13T04:28:24.884Z,99.99
2019-05-13T04:29:23.322Z,99.99
2019-05-13T04:30:25.205Z,99.99
2019-05-13T04:31:25.352Z,99.99
2019-05-13T04:32:28.619Z,99.99
2019-05-13T04:33:25.473Z,99.99
2019-05-13T04:34:25.581Z,99.99
2019-05-13T04:35:25.713Z,99.97
2019-05-13T04:36:27.462Z,99.99
2019-05-13T04:37:25.011Z,99.99
2019-05-13T04:38:25.180Z,99.77
2019-05-13T04:39:49.923Z,99.99
2019-05-13T04:40:25.642Z,99.99
2019-05-13T04:41:25.486Z,99.99
2019-05-13T04:42:25.654Z,99.44
2019-05-13T04:43:29.987Z,99.54
2019-05-13T04:44:23.873Z,99.99
2019-05-13T04:45:23.801Z,99.73
2019-05-13T04:46:25.597Z,99.64
2019-05-13T04:47:25.463Z,99.83
2019-05-13T04:48:25.385Z,99.16
2019-05-13T04:49:26.036Z,99.16
2019-05-13T04:50:25.371Z,99.07
2019-05-13T04:51:25.382Z,99.44
2019-05-13T04:52:25.075Z,99.07
2019-05-13T04:53:25.426Z,99.07
2019-05-13T04:54:25.933Z,98.59
2019-05-13T04:55:25.373Z,98.88
2019-05-13T04:56:24.993Z,98.79
2019-05-13T04:57:25.237Z,98.4
2019-05-13T04:58:25.957Z,98.31
2019-05-13T04:59:25.255Z,98.5
2019-05-13T05:00:25.835Z,98.31
2019-05-13T05:01:26.179Z,98.31
2019-05-13T05:02:36.464Z,98.59
2019-05-13T05:03:32.852Z,98.5
2019-05-13T05:04:34.750Z,98.5
2019-05-13T05:05:25.272Z,98.4
2019-05-13T05:06:25.262Z,98.21
2019-05-13T05:07:24.883Z,98.07
2019-05-13T05:08:24.987Z,99.02
2019-05-13T05:09:25.157Z,98.26
2019-05-13T05:10:38.744Z,98.93
2019-05-13T05:11:27.233Z,99.99
2019-05-13T05:12:23.033Z,98.74
2019-05-13T05:13:24.814Z,97.69
2019-05-13T05:14:25.014Z,97.97
2019-05-13T05:15:23.338Z,97.22
2019-05-13T05:16:24.676Z,96.84
2019-05-13T05:17:25.067Z,96.45
2019-05-13T05:18:24.873Z,96.84
2019-05-13T05:19:26.630Z,96.36
2019-05-13T05:20:25.637Z,96.26
2019-05-13T05:21:24.479Z,96.65
2019-05-13T05:22:24.751Z,96.22
2019-05-13T05:23:24.102Z,96.89
2019-05-13T05:24:34.922Z,96.03
2019-05-13T05:25:24.686Z,95.65
2019-05-13T05:26:24.677Z,95.36
2019-05-13T05:27:24.022Z,94.98
2019-05-13T05:28:24.428Z,95.08
2019-05-13T05:29:24.367Z,94.51
2019-05-13T05:30:24.470Z,94.6
2019-05-13T05:31:23.079Z,93.94
2019-05-13T05:32:24.157Z,93.55
2019-05-13T05:33:24.107Z,93.51
2019-05-13T05:34:24.588Z,93.41
2019-05-13T05:35:24.917Z,93.32
2019-05-13T05:36:24.432Z,93.23
2019-05-13T05:37:24.888Z,93.6
2019-05-13T05:38:28.315Z,93.23
2019-05-13T05:39:22.872Z,93.51
2019-05-13T05:40:34.692Z,93.32
2019-05-13T05:41:24.157Z,93.32
2019-05-13T05:42:24.354Z,93.13
2019-05-13T05:43:24.970Z,92.56
2019-05-13T05:44:24.097Z,92.56
2019-05-13T05:45:24.594Z,92.56
2019-05-13T05:46:24.688Z,91.51
2019-05-13T05:47:24.030Z,91.03
2019-05-13T05:48:24.742Z,91.42
2019-05-13T05:49:24.047Z,91.61
2019-05-13T05:50:23.040Z,90.75
2019-05-13T05:51:24.691Z,91.8
2019-05-13T05:52:23.899Z,91.37
2019-05-13T05:53:24.587Z,90.51
2019-05-13T05:54:34.466Z,90.51
2019-05-13T05:55:23.980Z,89.84
2019-05-13T05:56:24.518Z,89.75
2019-05-13T05:57:25.060Z,90.42
2019-05-13T05:58:25.432Z,89.94
2019-05-13T05:59:24.459Z,89.65
2019-05-13T06:00:24.690Z,89.65
2019-05-13T06:01:23.302Z,89.13
2019-05-13T06:02:25.623Z,89.89
2019-05-13T06:03:24.569Z,88.93
2019-05-13T06:04:24.675Z,89.22
2019-05-13T06:05:23.992Z,89.03
2019-05-13T06:06:25.427Z,88.46
2019-05-13T06:07:24.549Z,87.7
2019-05-13T06:08:24.789Z,87.23
2019-05-13T06:09:24.039Z,86.84
2019-05-13T06:10:22.588Z,87.41
2019-05-13T06:11:24.865Z,86.94
2019-05-13T06:12:24.081Z,86.84
2019-05-13T06:13:24.138Z,86.03
2019-05-13T06:14:24.669Z,85.55
2019-05-13T06:15:22.585Z,85.84
2019-05-13T06:16:24.495Z,84.83
2019-05-13T06:17:24.601Z,84.45
2019-05-13T06:18:24.749Z,83.88
2019-05-13T06:19:24.997Z,83.16
2019-05-13T06:20:23.842Z,82.2
2019-05-13T06:21:24.235Z,82.01
2019-05-13T06:22:24.378Z,81.2
2019-05-13T06:23:24.719Z,80.33
2019-05-13T06:24:37.142Z,79.57
2019-05-13T06:25:26.170Z,78.94
2019-05-13T06:26:26.155Z,78.37
2019-05-13T06:27:24.017Z,77.74
2019-05-13T06:28:24.373Z,77.84
2019-05-13T06:29:24.803Z,77.59
2019-05-13T06:30:24.448Z,76.73
2019-05-13T06:31:24.287Z,76.03
2019-05-13T06:32:28.660Z,75.01
2019-05-13T06:33:23.832Z,75.81
2019-05-13T06:34:24.204Z,75.62
2019-05-13T06:35:24.503Z,75.1
2019-05-13T06:36:24.646Z,74.48
2019-05-13T06:37:24.366Z,74.57
2019-05-13T06:38:25.090Z,74.13
2019-05-13T06:39:24.797Z,73.84
2019-05-13T06:40:24.167Z,73.65
2019-05-13T06:41:24.665Z,73.9
2019-05-13T06:42:24.796Z,73.52
2019-05-13T06:43:23.865Z,74.24
2019-05-13T06:44:24.092Z,74.09
2019-05-13T06:45:24.297Z,73.65
2019-05-13T06:46:24.547Z,73.75
2019-05-13T06:47:24.643Z,73.46
2019-05-13T06:48:23.073Z,73.11
2019-05-13T06:49:24.382Z,72.6
2019-05-13T06:50:24.580Z,72.6
2019-05-13T06:51:24.813Z,72.22
2019-05-13T06:52:23.961Z,72.44
2019-05-13T06:53:24.455Z,72.79
2019-05-13T06:54:37.341Z,72.83
2019-05-13T06:55:24.014Z,72.19
2019-05-13T06:56:24.525Z,71.58
2019-05-13T06:57:24.701Z,71.91
2019-05-13T06:58:24.981Z,71.23
2019-05-13T06:59:24.877Z,70.85
2019-05-13T07:00:24.266Z,70.43
2019-05-13T07:01:24.481Z,70.7
2019-05-13T07:02:24.354Z,70.95
2019-05-13T07:03:24.659Z,70.12
2019-05-13T07:04:24.604Z,69.99
2019-05-13T07:05:25.248Z,71.01
2019-05-13T07:06:27.341Z,71.27
2019-05-13T07:07:24.623Z,70.7
2019-05-13T07:08:24.795Z,70.03
2019-05-13T07:09:24.296Z,70.56
2019-05-13T07:10:24.336Z,70.85
2019-05-13T07:11:26.694Z,70.62
2019-05-13T07:12:24.623Z,70.05
2019-05-13T07:13:24.484Z,70.53
2019-05-13T07:14:24.467Z,70.28
2019-05-13T07:15:25.093Z,71.14
2019-05-13T07:16:24.949Z,70.05
2019-05-13T07:17:25.206Z,70.56
2019-05-13T07:18:24.580Z,70.12
2019-05-13T07:19:23.858Z,69.93
2019-05-13T07:20:25.432Z,69.03
2019-05-13T07:21:24.412Z,69.13
2019-05-13T07:22:25.732Z,69.95
2019-05-13T07:23:25.005Z,70.12
2019-05-13T07:24:24.143Z,69.89
2019-05-13T07:25:24.846Z,69.1
2019-05-13T07:26:24.794Z,68.24
2019-05-13T07:27:25.620Z,68.3
2019-05-13T07:28:24.647Z,68.65
2019-05-13T07:29:24.114Z,68.78
2019-05-13T07:30:23.982Z,68.68
2019-05-13T07:31:24.481Z,68.33
2019-05-13T07:32:24.818Z,67.89
2019-05-13T07:33:24.065Z,67.69
2019-05-13T07:34:27.080Z,68.37
2019-05-13T07:35:25.549Z,68.21
2019-05-13T07:36:25.149Z,68.08
2019-05-13T07:37:24.541Z,68.88
2019-05-13T07:38:24.976Z,68.46
2019-05-13T07:39:24.919Z,68.21
2019-05-13T07:40:24.890Z,67.54
2019-05-13T07:41:39.560Z,68.02
2019-05-13T07:42:24.838Z,67.63
2019-05-13T07:43:24.416Z,67.73
2019-05-13T07:44:26.160Z,68.02
2019-05-13T07:45:23.979Z,67.99
2019-05-13T07:46:24.505Z,68.5
2019-05-13T07:47:24.835Z,68.4
2019-05-13T07:48:31.789Z,67.69
2019-05-13T07:49:25.462Z,68.21
2019-05-13T07:50:24.499Z,68.4
2019-05-13T07:51:24.733Z,67.89
2019-05-13T07:52:25.437Z,67.73
2019-05-13T07:53:24.891Z,66.58
2019-05-13T07:54:24.735Z,67.02
2019-05-13T07:55:25.976Z,67.6
2019-05-13T07:56:24.571Z,67.12
2019-05-13T07:57:24.190Z,67.44
2019-05-13T07:58:25.464Z,67.99
2019-05-13T07:59:23.801Z,67.79
2019-05-13T08:00:24.434Z,67.6
2019-05-13T08:01:24.748Z,68.21
2019-05-13T08:02:24.427Z,67.63
2019-05-13T08:04:48.775Z,67.06
2019-05-13T08:05:45.334Z,66.39
2019-05-13T08:06:45.345Z,66.39
2019-05-13T08:07:45.397Z,66.39
2019-05-13T08:08:45.366Z,67.44
2019-05-13T08:09:45.383Z,67.54
2019-05-13T08:10:45.308Z,67.63
2019-05-13T08:24:54.249Z,68.66
2019-05-13T08:25:09.145Z,68.5
2019-05-13T08:26:09.077Z,67.16
2019-05-13T08:27:11.638Z,67.73
2019-05-13T08:28:09.105Z,66.58
2019-05-13T08:29:11.355Z,66.39
2019-05-13T08:30:11.623Z,66.1
2019-05-13T08:31:09.123Z,65.81
2019-05-13T08:32:11.136Z,66.39
2019-05-13T08:33:09.117Z,65.75
2019-05-13T08:34:11.451Z,65.17
2019-05-13T08:35:12.377Z,64.02
2019-05-13T08:36:11.813Z,64.5
2019-05-13T08:37:11.129Z,64.37
2019-05-13T08:38:09.110Z,64.66
2019-05-13T08:39:09.146Z,64.05
2019-05-13T08:40:09.130Z,65.23
2019-05-13T08:41:18.768Z,65.17
2019-05-13T08:42:19.951Z,65.23
2019-05-13T08:43:11.894Z,64.98
2019-05-13T08:44:09.109Z,64.72
2019-05-13T08:45:09.090Z,64.69
2019-05-13T08:46:09.147Z,64.05
2019-05-13T08:47:11.846Z,63.73
2019-05-13T08:48:09.139Z,63.25
2019-05-13T08:49:11.574Z,62.58
2019-05-13T08:50:11.622Z,60.85
2019-05-13T08:51:11.537Z,60.57
2019-05-13T08:52:11.748Z,61.88
2019-05-13T08:53:09.123Z,62.04
2019-05-13T08:54:11.296Z,62.16
2019-05-13T08:55:12.395Z,62.68
2019-05-13T08:56:09.131Z,62.26
2019-05-13T08:57:11.570Z,61.81
2019-05-13T08:58:09.137Z,61.17
2019-05-13T08:59:11.350Z,60.6
2019-05-13T09:00:09.213Z,60.75
2019-05-13T09:01:09.119Z,61.17
2019-05-13T09:02:11.355Z,59.92
2019-05-13T09:03:09.153Z,59.64
2019-05-13T09:04:11.561Z,60.5
2019-05-13T09:05:09.187Z,60.4
2019-05-13T09:06:11.395Z,61.11
2019-05-13T09:07:09.136Z,60.78
2019-05-13T09:08:11.298Z,59.83
2019-05-13T09:09:11.224Z,58.84
2019-05-13T09:10:09.133Z,58
2019-05-13T09:11:09.165Z,57.5
2019-05-13T09:12:10.905Z,58.84
2019-05-13T09:13:09.173Z,58
2019-05-13T09:14:11.234Z,58.96
2019-05-13T09:15:11.594Z,58.58
2019-05-13T09:16:09.175Z,57.14
2019-05-13T09:17:09.159Z,57.23
2019-05-13T09:18:11.230Z,57.23
2019-05-13T09:19:13.304Z,57.01
2019-05-13T09:20:11.259Z,57.01
2019-05-13T09:21:11.429Z,57.01
2019-05-13T09:22:09.200Z,56.53
2019-05-13T09:23:11.182Z,56.53
2019-05-13T09:24:33.889Z,56.92
2019-05-13T09:25:09.247Z,57.88
2019-05-13T09:26:11.544Z,58.39
2019-05-13T09:27:11.314Z,58.74
2019-05-13T09:28:09.199Z,58.39
2019-05-13T09:29:11.599Z,57.97
2019-05-13T09:30:11.511Z,58.1
2019-05-13T09:31:09.184Z,57.14
2019-05-13T09:32:11.766Z,57.26
2019-05-13T09:33:11.403Z,57.36
2019-05-13T09:34:11.354Z,57.07
2019-05-13T09:35:11.678Z,57.33
2019-05-13T09:36:09.210Z,57.11
2019-05-13T09:41:27.123Z,56.44
2019-05-13T09:41:52.006Z,58.87
2019-05-13T09:42:55.410Z,59.09
2019-05-13T09:43:51.338Z,58.32
2019-05-13T09:44:49.510Z,58.25
2019-05-13T09:45:51.938Z,57.51
2019-05-13T09:46:51.621Z,57.04
2019-05-13T09:47:49.532Z,56.08
2019-05-13T09:48:51.591Z,56.56
2019-05-13T09:49:49.499Z,56.4
2019-05-13T09:50:51.630Z,55.08
2019-05-13T09:51:51.993Z,56.04
2019-05-13T09:52:51.702Z,56.23
2019-05-13T09:53:51.694Z,55.68
2019-05-13T09:55:03.019Z,54.63
2019-05-13T09:55:51.789Z,54.41
2019-05-13T09:56:51.578Z,54.41
2019-05-13T09:57:51.862Z,53.64
2019-05-13T10:00:05.929Z,53.28
2019-05-13T10:01:05.905Z,53.35
2019-05-13T10:02:06.150Z,53.64
2019-05-13T10:03:05.905Z,53.7
2019-05-13T10:04:06.013Z,54.28
2019-05-13T10:05:05.880Z,53.97
2019-05-13T10:06:05.930Z,54.28
2019-05-13T10:07:05.921Z,54.83
2019-05-13T10:08:05.938Z,54.8
2019-05-13T10:09:05.924Z,54.71
2019-05-13T10:10:05.897Z,54.88
2019-05-13T10:11:05.900Z,55.35
2019-05-13T10:12:06.316Z,56.15
2019-05-13T10:13:15.627Z,57.23
2019-05-13T10:14:05.902Z,56.88
2019-05-13T10:15:06.109Z,56.08
2019-05-13T10:16:05.956Z,56.18
2019-05-13T10:17:09.090Z,55.79
2019-05-13T10:18:05.933Z,55.53
2019-05-13T10:19:05.930Z,55.18
2019-05-13T10:20:05.921Z,54.41
2019-05-13T10:21:05.921Z,54.89
2019-05-13T10:22:05.946Z,53.52
2019-05-13T10:23:05.940Z,53.13
2019-05-13T10:24:06.169Z,53.42
2019-05-13T10:25:06.348Z,54.22
2019-05-13T10:26:06.459Z,53.92
2019-05-13T10:27:05.988Z,53.64
2019-05-13T10:28:05.977Z,53.74
2019-05-13T10:29:05.945Z,53.83
2019-05-13T10:36:32.487Z,56.52
2019-05-13T10:36:45.820Z,55.71
2019-05-13T10:37:45.703Z,55.43
2019-05-13T10:38:45.654Z,53.81
2019-05-13T10:39:45.613Z,53.66
2019-05-13T10:40:46.135Z,53.06
2019-05-13T10:41:45.630Z,52.87
2019-05-13T10:43:58.032Z,53.11
2019-05-13T10:44:57.999Z,52.7
2019-05-13T10:45:58.275Z,51.76
2019-05-13T10:46:58.032Z,53.02
2019-05-13T10:47:57.977Z,53.21
2019-05-13T10:48:58.029Z,52.83
2019-05-13T10:49:58.016Z,53.11
2019-05-13T10:52:12.192Z,52.27
2019-05-13T10:53:14.785Z,52.42
2019-05-13T10:54:11.269Z,52.68
2019-05-13T10:55:12.770Z,54.02
2019-05-13T10:56:11.283Z,52.97
2019-05-13T10:57:13.541Z,53.61
2019-05-13T10:58:12.226Z,52.99
2019-05-13T10:59:12.540Z,52.34
2019-05-13T11:00:12.161Z,52.08
2019-05-13T11:01:14.283Z,50.99
2019-05-13T11:02:13.271Z,51.35
2019-05-13T11:03:11.741Z,50.2
2019-05-13T11:04:15.940Z,50.37
2019-05-13T11:05:12.192Z,50.73
2019-05-13T11:06:14.192Z,50.78
2019-05-13T11:07:12.001Z,49.02
2019-05-13T11:08:11.283Z,48.47
2019-05-13T11:09:12.927Z,48.74
2019-05-13T11:10:13.216Z,49.63
2019-05-13T11:11:12.929Z,50.49
2019-05-13T11:12:12.140Z,50.59
2019-05-13T11:13:13.539Z,51.45
2019-05-13T11:14:32.235Z,51.62
2019-05-13T11:15:44.882Z,52.65
2019-05-13T11:16:30.747Z,51.72
2019-05-13T11:17:33.824Z,51.91
2019-05-13T11:18:30.737Z,51.53
2019-05-13T11:19:38.816Z,50.85
2019-05-13T11:20:32.352Z,50.46
2019-05-13T11:21:32.050Z,50.46
2019-05-13T11:22:32.651Z,50.59
2019-05-13T11:23:32.109Z,51.35
2019-05-13T11:24:32.403Z,52.95
2019-05-13T11:25:32.328Z,50.54
2019-05-13T11:26:35.781Z,48.81
2019-05-13T11:27:32.321Z,48.66
2019-05-13T11:28:31.672Z,49.17
2019-05-13T11:29:32.296Z,47.46
2019-05-13T11:30:31.909Z,47.72
2019-05-13T11:31:32.757Z,47.82
2019-05-13T11:33:45.916Z,49.51
2019-05-13T11:34:45.861Z,48.81
2019-05-13T11:35:45.915Z,49.57
2019-05-13T11:36:46.328Z,50.08
2019-05-13T11:37:46.745Z,49.53
2019-05-13T11:38:46.158Z,49.33
2019-05-13T11:39:46.290Z,49.15
2019-05-13T11:40:45.881Z,48.66
2019-05-13T11:41:45.914Z,48.28
2019-05-13T11:42:45.926Z,48.54
2019-05-13T11:43:45.878Z,49.33
2019-05-13T11:44:45.871Z,49.27
2019-05-13T11:47:02.266Z,48.71
2019-05-13T11:48:02.017Z,49.43
2019-05-13T11:48:59.245Z,50.4
2019-05-13T11:50:01.388Z,50.32
2019-05-13T11:50:59.282Z,50.45
2019-05-13T11:51:59.245Z,51.38
2019-05-13T11:53:02.917Z,51.21
2019-05-13T11:54:01.717Z,50.93
2019-05-13T11:55:12.977Z,48.69
2019-05-13T11:56:03.227Z,48.21
2019-05-13T11:57:08.346Z,48.52
2019-05-13T12:00:06.915Z,50.04
2019-05-13T12:00:21.787Z,48.61
2019-05-13T12:01:25.373Z,48.79
2019-05-13T12:02:25.714Z,48.93
2019-05-13T12:03:22.969Z,48.71
2019-05-13T12:04:26.438Z,48.47
2019-05-13T12:05:25.400Z,48.86
2019-05-13T12:06:25.860Z,49.19
2019-05-13T12:07:25.750Z,49.33
2019-05-13T12:08:25.317Z,50.4
2019-05-13T12:09:24.816Z,51.26
2019-05-13T12:10:22.772Z,51.04
2019-05-13T12:11:24.885Z,51.48
2019-05-13T12:12:22.590Z,51.7
2019-05-13T12:13:23.196Z,51.5
2019-05-13T12:15:15.942Z,51.31
2019-05-13T12:15:57.646Z,51.02
2019-05-13T12:16:57.607Z,50.45
2019-05-13T12:17:57.570Z,51.38
2019-05-13T12:18:57.582Z,50.32
2019-05-13T12:19:57.608Z,50.27
2019-05-13T12:20:57.611Z,51.6
2019-05-13T12:21:57.618Z,51.24
2019-05-13T12:22:57.607Z,52.37
2019-05-13T12:25:22.398Z,52.59
2019-05-13T12:26:23.407Z,51.92
2019-05-13T12:27:20.201Z,50.57
2019-05-13T12:28:20.355Z,51.62
2019-05-13T12:29:22.017Z,52.97
2019-05-13T12:30:22.528Z,52.2
2019-05-13T12:31:22.182Z,52.3
2019-05-13T12:32:22.323Z,51.17
2019-05-13T12:33:22.634Z,50.59
2019-05-13T12:34:22.069Z,50.63
2019-05-13T12:35:22.772Z,51.56
2019-05-13T12:36:25.679Z,50.88
2019-05-13T12:37:22.086Z,51.46
2019-05-13T12:38:22.575Z,51.92
2019-05-13T12:39:23.729Z,51.48
2019-05-13T12:40:22.734Z,50.81
2019-05-13T12:41:22.751Z,50.68
2019-05-13T12:42:22.605Z,50.51
2019-05-13T12:43:23.012Z,51.48
2019-05-13T12:44:22.745Z,50.59
2019-05-13T12:45:22.392Z,50.87
2019-05-13T12:46:23.651Z,51.31
2019-05-13T12:50:57.097Z,50.76
2019-05-13T12:52:04.806Z,50.46
2019-05-13T12:52:57.057Z,50.46
2019-05-13T12:53:57.029Z,50.85
2019-05-13T12:54:57.038Z,51.43
2019-05-13T12:56:03.091Z,52.22
2019-05-13T12:56:57.072Z,51.41
2019-05-13T12:57:57.068Z,50.61
2019-05-13T12:58:57.034Z,50.81
2019-05-13T12:59:57.053Z,50.54
2019-05-13T13:00:57.295Z,50.63
2019-05-13T13:01:57.057Z,50.59
2019-05-13T13:02:57.045Z,49.99
2019-05-13T13:03:57.277Z,50.15
2019-05-13T13:05:20.428Z,50.37
2019-05-13T13:06:33.053Z,50.54
2019-05-13T13:06:57.051Z,50.9
2019-05-13T13:08:38.147Z,51.86
2019-05-13T13:08:57.482Z,51.88
2019-05-13T13:09:57.491Z,51.98
2019-05-13T13:10:57.445Z,52.08
2019-05-13T13:11:57.516Z,52.75
2019-05-13T13:12:57.683Z,52.1
2019-05-13T13:14:05.574Z,51.91
2019-05-13T13:14:57.471Z,51.35
2019-05-13T13:15:57.395Z,50.66
2019-05-13T13:18:19.017Z,50.76
2019-05-13T13:19:17.899Z,51.62
2019-05-13T13:20:18.396Z,51.72
2019-05-13T13:21:17.657Z,51.47
2019-05-13T13:22:17.573Z,51.76
2019-05-13T13:23:17.553Z,52.26
2019-05-13T13:24:18.009Z,51.79
2019-05-13T13:25:27.010Z,51.79
2019-05-13T13:28:18.819Z,51.33
2019-05-13T13:28:37.391Z,51.33
2019-05-13T13:29:37.378Z,51.91
2019-05-13T13:30:39.077Z,53.19
2019-05-13T13:31:37.677Z,52.51
2019-05-13T13:32:37.383Z,52.73
2019-05-13T13:34:58.464Z,52.06
2019-05-13T13:37:12.546Z,50.37
2019-05-13T13:38:12.226Z,50.25
2019-05-13T13:39:17.354Z,50.49
2019-05-13T13:40:12.223Z,50.45
2019-05-13T13:41:21.808Z,49.48
2019-05-13T13:42:15.918Z,49.33
2019-05-13T13:43:15.393Z,48.69
2019-05-13T13:44:14.980Z,48.08
2019-05-13T13:45:12.232Z,48.28